createdAt,value
2018-03-29T00:00:45.313Z,20.5
2018-03-29T00:01:45.325Z,20.5
2018-03-29T00:02:45.405Z,20.5
2018-03-29T00:03:45.422Z,20.5
2018-03-29T00:04:45.314Z,20.5
2018-03-29T00:05:45.324Z,20.5
2018-03-29T00:06:45.308Z,20.5
2018-03-29T00:07:45.310Z,20.5
2018-03-29T00:08:45.308Z,20.5
2018-03-29T00:09:45.325Z,20.5
2018-03-29T00:10:45.338Z,20.5
2018-03-29T00:11:45.326Z,20.5
2018-03-29T00:12:45.313Z,20.5
2018-03-29T00:13:45.323Z,20.5
2018-03-29T00:14:45.307Z,20.5
2018-03-29T00:15:45.313Z,20.5
2018-03-29T00:16:45.343Z,20.5
2018-03-29T00:17:45.454Z,20.5
2018-03-29T00:18:45.318Z,20.5
2018-03-29T00:19:45.297Z,20.5
2018-03-29T00:20:45.318Z,20.5
2018-03-29T00:21:45.379Z,20.5
2018-03-29T00:22:45.311Z,20.5
2018-03-29T00:23:45.305Z,20.5
2018-03-29T00:24:45.348Z,20.5
2018-03-29T00:25:45.320Z,20.25
2018-03-29T00:26:45.320Z,20.5
2018-03-29T00:27:45.334Z,20.5
2018-03-29T00:28:45.302Z,20.25
2018-03-29T00:29:45.315Z,20.5
2018-03-29T00:30:45.321Z,20.5
2018-03-29T00:31:45.378Z,20.25
2018-03-29T00:32:45.318Z,20.5
2018-03-29T00:33:45.327Z,20.5
2018-03-29T00:34:45.303Z,20.25
2018-03-29T00:35:45.338Z,20.25
2018-03-29T00:36:45.304Z,20.5
2018-03-29T00:37:45.300Z,20.25
2018-03-29T00:38:45.308Z,20.25
2018-03-29T00:39:45.325Z,20.5
2018-03-29T00:40:45.303Z,20.25
2018-03-29T00:41:45.331Z,20.25
2018-03-29T00:42:45.325Z,20.25
2018-03-29T00:43:45.302Z,20.25
2018-03-29T00:44:45.303Z,20.25
2018-03-29T00:45:45.301Z,20.25
2018-03-29T00:46:45.327Z,20.25
2018-03-29T00:47:45.318Z,20.25
2018-03-29T00:48:45.342Z,20.25
2018-03-29T00:49:45.290Z,20.25
2018-03-29T00:50:45.297Z,20.25
2018-03-29T00:51:45.315Z,20.25
2018-03-29T00:52:45.360Z,20.25
2018-03-29T00:53:45.312Z,20.25
2018-03-29T00:54:45.276Z,20.25
2018-03-29T00:55:45.340Z,20.25
2018-03-29T00:56:45.290Z,20.25
2018-03-29T00:57:45.295Z,20.25
2018-03-29T00:58:45.342Z,20.25
2018-03-29T00:59:45.302Z,20.25
2018-03-29T01:00:45.304Z,20.25
2018-03-29T01:01:45.287Z,20.25
2018-03-29T01:02:45.289Z,20.25
2018-03-29T01:03:45.289Z,20.25
2018-03-29T01:04:45.289Z,20.25
2018-03-29T01:05:45.298Z,20.25
2018-03-29T01:06:45.287Z,20.25
2018-03-29T01:07:45.296Z,20.25
2018-03-29T01:08:45.284Z,20.25
2018-03-29T01:09:45.314Z,20.25
2018-03-29T01:10:45.310Z,20.25
2018-03-29T01:11:45.297Z,20.25
2018-03-29T01:12:45.335Z,20.25
2018-03-29T01:13:45.296Z,20.25
2018-03-29T01:14:45.309Z,20.25
2018-03-29T01:15:45.303Z,20.25
2018-03-29T01:16:45.285Z,20.25
2018-03-29T01:17:45.301Z,20.25
2018-03-29T01:18:45.337Z,20.25
2018-03-29T01:19:45.295Z,20.25
2018-03-29T01:20:45.337Z,20.25
2018-03-29T01:21:45.296Z,20.25
2018-03-29T01:22:45.291Z,20.25
2018-03-29T01:23:45.334Z,20.25
2018-03-29T01:24:45.295Z,20.25
2018-03-29T01:25:45.306Z,20.25
2018-03-29T01:26:45.281Z,20.25
2018-03-29T01:27:45.273Z,20.25
2018-03-29T01:28:45.287Z,20.25
2018-03-29T01:29:45.284Z,20.25
2018-03-29T01:30:45.300Z,20.25
2018-03-29T01:31:45.291Z,20.25
2018-03-29T01:32:45.295Z,20.25
2018-03-29T01:33:45.302Z,20.25
2018-03-29T01:34:45.287Z,20.25
2018-03-29T01:35:45.288Z,20.25
2018-03-29T01:36:45.273Z,20.25
2018-03-29T01:37:45.304Z,20.25
2018-03-29T01:38:45.394Z,20.25
2018-03-29T01:39:45.306Z,20.25
2018-03-29T01:40:45.278Z,20.25
2018-03-29T01:41:45.280Z,20.25
2018-03-29T01:42:45.261Z,20.25
2018-03-29T01:43:45.367Z,20.25
2018-03-29T01:44:45.304Z,20
2018-03-29T01:45:45.286Z,20.25
2018-03-29T01:46:45.281Z,20
2018-03-29T01:47:45.283Z,20.25
2018-03-29T01:48:45.304Z,20.25
2018-03-29T01:49:45.276Z,20
2018-03-29T01:50:45.294Z,20.25
2018-03-29T01:51:45.266Z,20.25
2018-03-29T01:52:45.270Z,20
2018-03-29T01:53:45.281Z,20
2018-03-29T01:54:45.331Z,20.25
2018-03-29T01:55:45.293Z,20
2018-03-29T01:56:45.274Z,20
2018-03-29T01:57:45.275Z,20.25
2018-03-29T01:58:45.300Z,20
2018-03-29T01:59:45.283Z,20
2018-03-29T02:00:45.278Z,20
2018-03-29T02:01:45.290Z,20
2018-03-29T02:02:45.276Z,20
2018-03-29T02:03:45.417Z,20
2018-03-29T02:04:45.381Z,20
2018-03-29T02:05:45.276Z,20
2018-03-29T02:06:45.269Z,20
2018-03-29T02:07:45.431Z,20
2018-03-29T02:08:45.294Z,20
2018-03-29T02:09:45.270Z,20
2018-03-29T02:10:45.277Z,20
2018-03-29T02:11:45.298Z,20
2018-03-29T02:12:45.269Z,20
2018-03-29T02:13:45.313Z,20
2018-03-29T02:14:45.271Z,20
2018-03-29T02:15:45.261Z,20
2018-03-29T02:16:45.280Z,20
2018-03-29T02:17:45.268Z,20
2018-03-29T02:18:45.285Z,20
2018-03-29T02:19:45.274Z,20
2018-03-29T02:20:45.551Z,20
2018-03-29T02:21:45.275Z,20
2018-03-29T02:22:45.273Z,20
2018-03-29T02:23:45.285Z,20
2018-03-29T02:24:45.256Z,20
2018-03-29T02:25:45.334Z,20
2018-03-29T02:26:45.275Z,20
2018-03-29T02:27:45.273Z,20
2018-03-29T02:28:45.258Z,20
2018-03-29T02:29:45.260Z,20
2018-03-29T02:30:45.304Z,20
2018-03-29T02:31:45.277Z,20
2018-03-29T02:32:45.286Z,20
2018-03-29T02:33:45.266Z,20
2018-03-29T02:34:45.303Z,20
2018-03-29T02:35:45.268Z,20
2018-03-29T02:36:45.282Z,20
2018-03-29T02:37:45.284Z,20
2018-03-29T02:38:45.275Z,20
2018-03-29T02:39:45.364Z,20
2018-03-29T02:40:45.284Z,20
2018-03-29T02:41:45.270Z,20
2018-03-29T02:42:45.284Z,20
2018-03-29T02:43:45.269Z,20
2018-03-29T02:44:45.315Z,20
2018-03-29T02:45:45.275Z,20
2018-03-29T02:46:45.263Z,20
2018-03-29T02:47:45.271Z,20
2018-03-29T02:48:45.283Z,20
2018-03-29T02:49:45.280Z,20
2018-03-29T02:50:45.262Z,20
2018-03-29T02:51:45.248Z,20
2018-03-29T02:52:45.288Z,20
2018-03-29T02:53:45.267Z,20
2018-03-29T02:54:45.264Z,20
2018-03-29T02:55:45.335Z,20
2018-03-29T02:56:45.264Z,20
2018-03-29T02:57:45.313Z,20
2018-03-29T02:58:45.277Z,20
2018-03-29T02:59:45.258Z,20
2018-03-29T03:00:45.273Z,20
2018-03-29T03:01:45.293Z,20
2018-03-29T03:02:45.270Z,20
2018-03-29T03:03:45.267Z,20
2018-03-29T03:04:45.304Z,20
2018-03-29T03:05:45.263Z,20
2018-03-29T03:06:45.258Z,20
2018-03-29T03:07:45.306Z,20
2018-03-29T03:08:45.263Z,20
2018-03-29T03:09:45.279Z,20
2018-03-29T03:10:45.266Z,20
2018-03-29T03:11:45.240Z,20
2018-03-29T03:12:45.278Z,20
2018-03-29T03:13:45.250Z,19.75
2018-03-29T03:14:45.262Z,20
2018-03-29T03:15:45.335Z,20
2018-03-29T03:16:45.248Z,20
2018-03-29T03:17:45.290Z,20
2018-03-29T03:18:45.256Z,20
2018-03-29T03:19:45.251Z,19.75
2018-03-29T03:20:45.255Z,20
2018-03-29T03:21:45.258Z,20
2018-03-29T03:22:45.258Z,19.75
2018-03-29T03:23:45.260Z,19.75
2018-03-29T03:24:45.269Z,20
2018-03-29T03:25:45.282Z,20
2018-03-29T03:26:45.293Z,20
2018-03-29T03:27:45.240Z,20
2018-03-29T03:28:45.262Z,19.75
2018-03-29T03:29:45.246Z,20
2018-03-29T03:30:45.304Z,20
2018-03-29T03:31:45.275Z,19.75
2018-03-29T03:32:45.251Z,19.75
2018-03-29T03:33:45.268Z,19.75
2018-03-29T03:34:45.261Z,19.75
2018-03-29T03:35:45.305Z,19.75
2018-03-29T03:36:45.266Z,20
2018-03-29T03:37:45.226Z,19.75
2018-03-29T03:38:45.259Z,19.75
2018-03-29T03:39:45.253Z,19.75
2018-03-29T03:40:45.251Z,19.75
2018-03-29T03:41:45.246Z,19.75
2018-03-29T03:42:45.239Z,19.75
2018-03-29T03:43:45.249Z,19.75
2018-03-29T03:44:45.281Z,19.75
2018-03-29T03:45:45.259Z,19.75
2018-03-29T03:46:45.246Z,19.75
2018-03-29T03:47:45.226Z,19.75
2018-03-29T03:48:45.271Z,19.75
2018-03-29T03:49:45.248Z,19.75
2018-03-29T03:50:45.274Z,19.75
2018-03-29T03:51:45.284Z,19.75
2018-03-29T03:52:45.252Z,19.75
2018-03-29T03:53:45.250Z,19.75
2018-03-29T03:54:45.223Z,19.75
2018-03-29T03:55:45.271Z,19.75
2018-03-29T03:56:45.335Z,19.75
2018-03-29T03:57:45.259Z,19.75
2018-03-29T03:58:45.240Z,19.75
2018-03-29T03:59:45.236Z,19.75
2018-03-29T04:00:45.081Z,19.75
2018-03-29T04:01:45.399Z,19.75
2018-03-29T04:02:45.249Z,19.75
2018-03-29T04:03:45.247Z,19.75
2018-03-29T04:04:45.345Z,19.75
2018-03-29T04:05:45.342Z,19.75
2018-03-29T04:06:45.258Z,19.75
2018-03-29T04:07:45.228Z,19.75
2018-03-29T04:08:45.261Z,19.75
2018-03-29T04:09:45.222Z,19.75
2018-03-29T04:10:45.250Z,19.75
2018-03-29T04:11:45.240Z,19.75
2018-03-29T04:12:45.240Z,19.75
2018-03-29T04:13:45.233Z,19.75
2018-03-29T04:14:45.236Z,19.75
2018-03-29T04:15:45.249Z,19.75
2018-03-29T04:16:45.250Z,19.75
2018-03-29T04:17:45.282Z,19.75
2018-03-29T04:18:45.232Z,19.75
2018-03-29T04:19:45.306Z,20
2018-03-29T04:20:45.248Z,19.75
2018-03-29T04:21:45.207Z,19.75
2018-03-29T04:22:45.264Z,20
2018-03-29T04:23:45.218Z,20
2018-03-29T04:24:45.225Z,20
2018-03-29T04:25:45.234Z,20
2018-03-29T04:26:45.240Z,20
2018-03-29T04:27:45.269Z,20
2018-03-29T04:28:45.240Z,20
2018-03-29T04:29:45.240Z,20
2018-03-29T04:30:45.262Z,20
2018-03-29T04:31:45.226Z,20
2018-03-29T04:32:45.250Z,20
2018-03-29T04:33:45.225Z,20
2018-03-29T04:34:45.232Z,20
2018-03-29T04:35:45.311Z,20
2018-03-29T04:36:45.208Z,20
2018-03-29T04:37:45.239Z,20
2018-03-29T04:38:45.229Z,20
2018-03-29T04:39:45.231Z,20
2018-03-29T04:40:45.248Z,20
2018-03-29T04:41:45.228Z,20.25
2018-03-29T04:42:45.211Z,20.25
2018-03-29T04:43:45.218Z,20.25
2018-03-29T04:44:45.272Z,20.25
2018-03-29T04:45:45.250Z,20.25
2018-03-29T04:46:45.222Z,20.25
2018-03-29T04:47:45.221Z,20.25
2018-03-29T04:48:45.230Z,20.25
2018-03-29T04:49:45.240Z,20.25
2018-03-29T04:50:45.248Z,20.25
2018-03-29T04:51:45.238Z,20.25
2018-03-29T04:52:45.082Z,20.25
2018-03-29T04:53:45.230Z,20.25
2018-03-29T04:54:45.215Z,20.25
2018-03-29T04:55:45.244Z,20.25
2018-03-29T04:56:45.217Z,20.25
2018-03-29T04:57:45.275Z,20.25
2018-03-29T04:58:45.281Z,20.25
2018-03-29T04:59:45.219Z,20.25
2018-03-29T05:00:45.246Z,20.25
2018-03-29T05:01:45.217Z,20.5
2018-03-29T05:02:45.236Z,20.5
2018-03-29T05:03:45.246Z,20.5
2018-03-29T05:04:45.215Z,20.5
2018-03-29T05:05:45.235Z,20.5
2018-03-29T05:06:45.234Z,20.5
2018-03-29T05:07:45.238Z,20.5
2018-03-29T05:08:45.210Z,20.5
2018-03-29T05:09:45.239Z,20.5
2018-03-29T05:10:45.203Z,20.5
2018-03-29T05:11:45.216Z,20.5
2018-03-29T05:12:45.246Z,20.5
2018-03-29T05:13:45.237Z,20.5
2018-03-29T05:14:45.238Z,20.5
2018-03-29T05:15:45.214Z,20.5
2018-03-29T05:16:45.219Z,20.5
2018-03-29T05:17:45.216Z,20.5
2018-03-29T05:18:45.301Z,20.5
2018-03-29T05:19:45.264Z,20.5
2018-03-29T05:20:45.229Z,20.5
2018-03-29T05:21:45.256Z,20.5
2018-03-29T05:22:45.246Z,20.5
2018-03-29T05:23:45.229Z,20.5
2018-03-29T05:24:45.190Z,20.5
2018-03-29T05:25:45.293Z,20.75
2018-03-29T05:26:45.220Z,20.75
2018-03-29T05:27:45.245Z,20.5
2018-03-29T05:28:45.467Z,20.75
2018-03-29T05:29:45.221Z,20.75
2018-03-29T05:30:45.213Z,20.75
2018-03-29T05:31:45.208Z,20.75
2018-03-29T05:32:45.210Z,20.75
2018-03-29T05:33:45.193Z,20.75
2018-03-29T05:34:45.200Z,20.75
2018-03-29T05:35:45.218Z,20.75
2018-03-29T05:36:45.218Z,20.75
2018-03-29T05:37:45.211Z,20.75
2018-03-29T05:38:45.207Z,20.75
2018-03-29T05:39:45.267Z,20.75
2018-03-29T05:40:45.216Z,20.75
2018-03-29T05:41:45.224Z,20.75
2018-03-29T05:42:45.213Z,20.75
2018-03-29T05:43:45.198Z,20.75
2018-03-29T05:44:45.213Z,20.75
2018-03-29T05:45:45.207Z,20.75
2018-03-29T05:46:45.223Z,20.75
2018-03-29T05:47:45.229Z,20.75
2018-03-29T05:48:45.201Z,20.75
2018-03-29T05:49:45.197Z,20.75
2018-03-29T05:50:45.223Z,20.75
2018-03-29T05:51:45.224Z,20.75
2018-03-29T05:52:45.222Z,20.75
2018-03-29T05:53:45.216Z,20.75
2018-03-29T05:54:45.241Z,20.75
2018-03-29T05:55:45.198Z,20.75
2018-03-29T05:56:45.193Z,20.75
2018-03-29T05:57:45.233Z,20.75
2018-03-29T05:58:45.289Z,20.75
2018-03-29T05:59:45.207Z,20.75
2018-03-29T06:00:45.213Z,20.75
2018-03-29T06:01:45.202Z,20.75
2018-03-29T06:02:45.243Z,20.75
2018-03-29T06:03:45.205Z,20.75
2018-03-29T06:04:45.201Z,21
2018-03-29T06:05:45.302Z,20.75
2018-03-29T06:06:45.317Z,21
2018-03-29T06:07:45.202Z,21
2018-03-29T06:08:45.214Z,20.75
2018-03-29T06:09:45.250Z,20.75
2018-03-29T06:10:45.209Z,21
2018-03-29T06:11:45.194Z,20.75
2018-03-29T06:12:45.218Z,21
2018-03-29T06:13:45.213Z,21
2018-03-29T06:14:45.223Z,20.75
2018-03-29T06:15:45.258Z,20.75
2018-03-29T06:16:45.219Z,21
2018-03-29T06:17:45.400Z,21
2018-03-29T06:18:47.296Z,21
2018-03-29T06:19:47.944Z,21
2018-03-29T06:20:45.193Z,21
2018-03-29T06:21:45.235Z,20.75
2018-03-29T06:22:45.222Z,21
2018-03-29T06:23:45.232Z,21
2018-03-29T06:24:45.948Z,21
2018-03-29T06:25:45.192Z,21
2018-03-29T06:26:45.724Z,21
2018-03-29T06:27:45.201Z,21
2018-03-29T06:28:45.212Z,21
2018-03-29T06:29:45.283Z,20.75
2018-03-29T06:30:45.232Z,21
2018-03-29T06:31:45.180Z,21
2018-03-29T06:32:45.217Z,21
2018-03-29T06:33:45.224Z,21
2018-03-29T06:34:45.217Z,21
2018-03-29T06:35:45.254Z,20.75
2018-03-29T06:36:45.209Z,20.75
2018-03-29T06:37:45.193Z,21
2018-03-29T06:38:45.206Z,21
2018-03-29T06:39:45.233Z,21
2018-03-29T06:40:45.180Z,21
2018-03-29T06:41:45.193Z,21
2018-03-29T06:42:45.186Z,21
2018-03-29T06:43:45.200Z,21
2018-03-29T06:44:45.187Z,21
2018-03-29T06:45:45.188Z,21
2018-03-29T06:46:45.241Z,21
2018-03-29T06:47:45.176Z,21
2018-03-29T06:48:45.256Z,21
2018-03-29T06:49:45.195Z,21
2018-03-29T06:50:45.196Z,21
2018-03-29T06:51:45.215Z,21
2018-03-29T06:52:45.182Z,21
2018-03-29T06:53:45.178Z,21
2018-03-29T06:54:45.403Z,21
2018-03-29T06:55:45.200Z,21
2018-03-29T06:56:45.192Z,21
2018-03-29T06:57:45.179Z,21
2018-03-29T06:58:45.214Z,21
2018-03-29T06:59:45.217Z,21
2018-03-29T07:00:45.268Z,21
2018-03-29T07:01:45.172Z,21
2018-03-29T07:02:45.193Z,21
2018-03-29T07:03:45.223Z,21
2018-03-29T07:04:45.205Z,21
2018-03-29T07:05:45.196Z,21
2018-03-29T07:06:45.224Z,21
2018-03-29T07:07:45.189Z,21
2018-03-29T07:08:45.227Z,21
2018-03-29T07:09:45.196Z,21
2018-03-29T07:10:45.172Z,21
2018-03-29T07:11:45.174Z,21
2018-03-29T07:12:45.218Z,21
2018-03-29T07:13:45.196Z,21
2018-03-29T07:14:45.205Z,21
2018-03-29T07:15:45.225Z,21
2018-03-29T07:16:45.174Z,21
2018-03-29T07:17:45.199Z,21
2018-03-29T07:18:45.255Z,21
2018-03-29T07:19:45.177Z,21
2018-03-29T07:20:45.180Z,21
2018-03-29T07:21:45.329Z,21
2018-03-29T07:22:45.187Z,21
2018-03-29T07:23:45.220Z,21
2018-03-29T07:24:45.216Z,21
2018-03-29T07:25:45.175Z,21
2018-03-29T07:26:45.203Z,21
2018-03-29T07:27:45.216Z,21
2018-03-29T07:28:45.180Z,21.25
2018-03-29T07:29:45.453Z,21
2018-03-29T07:30:45.226Z,21
2018-03-29T07:31:45.199Z,21.25
2018-03-29T07:32:45.164Z,21.25
2018-03-29T07:33:45.198Z,21.25
2018-03-29T07:34:45.195Z,21.25
2018-03-29T07:35:45.189Z,21.25
2018-03-29T07:36:45.169Z,21.25
2018-03-29T07:37:45.224Z,21.25
2018-03-29T07:38:45.166Z,21.25
2018-03-29T07:39:45.169Z,21.25
2018-03-29T07:40:45.190Z,21.25
2018-03-29T07:41:45.195Z,21.25
2018-03-29T07:42:45.310Z,21.25
2018-03-29T07:43:45.155Z,21.25
2018-03-29T07:44:45.225Z,21.25
2018-03-29T07:45:45.146Z,21.25
2018-03-29T07:46:45.178Z,21.25
2018-03-29T07:47:45.162Z,21.25
2018-03-29T07:48:45.172Z,21.25
2018-03-29T07:49:45.169Z,21.25
2018-03-29T07:50:45.175Z,21.25
2018-03-29T07:51:45.188Z,21.25
2018-03-29T07:52:45.183Z,21.25
2018-03-29T07:53:45.165Z,21.25
2018-03-29T07:54:45.285Z,21.25
2018-03-29T07:55:45.162Z,21.25
2018-03-29T07:56:45.176Z,21.25
2018-03-29T07:57:45.204Z,21.25
2018-03-29T07:58:45.164Z,21.25
2018-03-29T07:59:45.176Z,21.25
2018-03-29T08:00:45.225Z,21.25
2018-03-29T08:01:45.235Z,21.25
2018-03-29T08:02:45.158Z,21.25
2018-03-29T08:03:45.185Z,21.25
2018-03-29T08:04:45.185Z,21.25
2018-03-29T08:05:45.162Z,21.25
2018-03-29T08:06:45.265Z,21.25
2018-03-29T08:07:45.263Z,21.25
2018-03-29T08:08:45.190Z,21.25
2018-03-29T08:09:45.186Z,21.25
2018-03-29T08:10:45.156Z,21.25
2018-03-29T08:11:45.152Z,21.25
2018-03-29T08:12:45.208Z,21.25
2018-03-29T08:13:45.254Z,21.25
2018-03-29T08:14:45.181Z,21.25
2018-03-29T08:15:45.156Z,21.25
2018-03-29T08:16:45.166Z,21.25
2018-03-29T08:17:45.177Z,21.25
2018-03-29T08:18:45.150Z,21.25
2018-03-29T08:19:45.204Z,21.25
2018-03-29T08:20:45.193Z,21.25
2018-03-29T08:21:45.372Z,21.25
2018-03-29T08:22:45.171Z,21.25
2018-03-29T08:23:45.174Z,21.25
2018-03-29T08:24:45.153Z,21.25
2018-03-29T08:25:45.156Z,21.25
2018-03-29T08:26:45.164Z,21.25
2018-03-29T08:27:45.181Z,21.25
2018-03-29T08:28:45.152Z,21.25
2018-03-29T08:29:45.190Z,21.25
2018-03-29T08:30:45.194Z,21.25
2018-03-29T08:31:45.168Z,21.25
2018-03-29T08:32:45.202Z,21.25
2018-03-29T08:33:45.137Z,21.25
2018-03-29T08:34:45.180Z,21.5
2018-03-29T08:35:45.146Z,21.25
2018-03-29T08:36:45.164Z,21.25
2018-03-29T08:37:45.155Z,21.5
2018-03-29T08:38:45.150Z,21.25
2018-03-29T08:39:45.210Z,21.5
2018-03-29T08:40:45.182Z,21.5
2018-03-29T08:41:45.178Z,21.25
2018-03-29T08:42:45.130Z,21.5
2018-03-29T08:43:45.197Z,21.5
2018-03-29T08:44:45.188Z,21.5
2018-03-29T08:45:45.213Z,21.5
2018-03-29T08:46:45.166Z,21.5
2018-03-29T08:47:45.167Z,21.5
2018-03-29T08:48:45.200Z,21.5
2018-03-29T08:49:45.199Z,21.5
2018-03-29T08:50:45.150Z,21.5
2018-03-29T08:51:45.151Z,21.5
2018-03-29T08:52:45.146Z,21.5
2018-03-29T08:53:45.162Z,21.5
2018-03-29T08:54:45.214Z,21.5
2018-03-29T08:55:45.150Z,21.5
2018-03-29T08:56:45.155Z,21.5
2018-03-29T08:57:45.166Z,21.5
2018-03-29T08:58:45.167Z,21.5
2018-03-29T08:59:45.450Z,21.5
2018-03-29T09:00:45.159Z,21.5
2018-03-29T09:01:45.146Z,21.5
2018-03-29T09:02:45.186Z,21.5
2018-03-29T09:03:45.152Z,21.5
2018-03-29T09:04:45.146Z,21.5
2018-03-29T09:05:45.148Z,21.5
2018-03-29T09:06:45.149Z,21.5
2018-03-29T09:07:45.137Z,21.5
2018-03-29T09:08:45.140Z,21.5
2018-03-29T09:09:45.137Z,21.5
2018-03-29T09:10:45.132Z,21.5
2018-03-29T09:11:45.146Z,21.5
2018-03-29T09:12:45.138Z,21.5
2018-03-29T09:13:45.150Z,21.5
2018-03-29T09:14:45.189Z,21.5
2018-03-29T09:15:45.137Z,21.5
2018-03-29T09:16:45.150Z,21.5
2018-03-29T09:17:45.132Z,21.5
2018-03-29T09:18:45.144Z,21.5
2018-03-29T09:19:45.176Z,21.5
2018-03-29T09:20:45.148Z,21.5
2018-03-29T09:21:45.165Z,21.5
2018-03-29T09:22:45.172Z,21.5
2018-03-29T09:23:45.143Z,21.5
2018-03-29T09:24:45.153Z,21.5
2018-03-29T09:25:45.138Z,21.5
2018-03-29T09:26:45.152Z,21.5
2018-03-29T09:27:45.138Z,21.5
2018-03-29T09:28:45.127Z,21.5
2018-03-29T09:29:45.141Z,21.5
2018-03-29T09:30:45.146Z,21.5
2018-03-29T09:31:45.166Z,21.5
2018-03-29T09:32:45.132Z,21.5
2018-03-29T09:33:45.167Z,21.5
2018-03-29T09:34:48.302Z,21.5
2018-03-29T09:35:45.136Z,21.5
2018-03-29T09:36:45.207Z,21.5
2018-03-29T09:37:45.137Z,21.5
2018-03-29T09:38:45.136Z,21.5
2018-03-29T09:39:45.174Z,21.5
2018-03-29T09:40:45.153Z,21.5
2018-03-29T09:41:45.211Z,21.5
2018-03-29T09:42:45.186Z,21.5
2018-03-29T09:43:45.166Z,21.5
2018-03-29T09:44:45.142Z,21.5
2018-03-29T09:45:45.133Z,21.5
2018-03-29T09:46:45.154Z,21.5
2018-03-29T09:47:45.358Z,21.5
2018-03-29T09:48:45.179Z,21.5
2018-03-29T09:49:45.123Z,21.5
2018-03-29T09:50:45.203Z,21.5
2018-03-29T09:51:45.172Z,21.5
2018-03-29T09:52:45.146Z,21.5
2018-03-29T09:53:45.148Z,21.5
2018-03-29T09:54:45.127Z,21.5
2018-03-29T09:55:45.135Z,21.5
2018-03-29T09:56:45.165Z,21.5
2018-03-29T09:57:45.153Z,21.5
2018-03-29T09:58:45.156Z,21.5
2018-03-29T09:59:45.135Z,21.5
2018-03-29T10:00:45.153Z,21.5
2018-03-29T10:01:45.475Z,21.5
2018-03-29T10:02:45.125Z,21.5
2018-03-29T10:03:45.115Z,21.5
2018-03-29T10:04:45.224Z,21.5
2018-03-29T10:05:45.146Z,21.5
2018-03-29T10:06:45.161Z,21.5
2018-03-29T10:07:45.259Z,21.5
2018-03-29T10:08:45.225Z,21.5
2018-03-29T10:09:45.124Z,21.5
2018-03-29T10:10:45.140Z,21.5
2018-03-29T10:11:45.173Z,21.5
2018-03-29T10:12:45.121Z,21.5
2018-03-29T10:13:45.112Z,21.5
2018-03-29T10:14:45.127Z,21.5
2018-03-29T10:15:45.120Z,21.5
2018-03-29T10:16:45.137Z,21.5
2018-03-29T10:17:45.156Z,21.5
2018-03-29T10:18:45.133Z,21.5
2018-03-29T10:19:45.138Z,21.5
2018-03-29T10:20:45.117Z,21.5
2018-03-29T10:21:45.117Z,21.5
2018-03-29T10:22:45.159Z,21.5
2018-03-29T10:23:45.110Z,21.5
2018-03-29T10:24:45.145Z,21.5
2018-03-29T10:25:45.120Z,21.5
2018-03-29T10:26:45.181Z,21.5
2018-03-29T10:27:45.222Z,21.5
2018-03-29T10:28:45.142Z,21.5
2018-03-29T10:29:45.125Z,21.5
2018-03-29T10:30:45.130Z,21.5
2018-03-29T10:31:45.266Z,21.5
2018-03-29T10:32:45.111Z,21.5
2018-03-29T10:33:45.106Z,21.5
2018-03-29T10:34:45.129Z,21.5
2018-03-29T10:35:45.410Z,21.5
2018-03-29T10:36:45.139Z,21.5
2018-03-29T10:37:45.122Z,21.5
2018-03-29T10:38:45.129Z,21.5
2018-03-29T10:39:45.135Z,21.5
2018-03-29T10:40:45.130Z,21.5
2018-03-29T10:41:45.274Z,21.5
2018-03-29T10:42:45.120Z,21.5
2018-03-29T10:43:45.104Z,21.5
2018-03-29T10:44:45.104Z,21.5
2018-03-29T10:45:45.125Z,21.5
2018-03-29T10:46:45.146Z,21.5
2018-03-29T10:47:45.113Z,21.5
2018-03-29T10:48:45.105Z,21.5
2018-03-29T10:49:45.119Z,21.75
2018-03-29T10:50:45.111Z,21.5
2018-03-29T10:51:45.149Z,21.5
2018-03-29T10:52:45.112Z,21.5
2018-03-29T10:53:45.113Z,21.5
2018-03-29T10:54:45.140Z,21.5
2018-03-29T10:55:45.106Z,21.5
2018-03-29T10:56:45.368Z,21.5
2018-03-29T10:57:45.130Z,21.5
2018-03-29T10:58:45.110Z,21.75
2018-03-29T10:59:45.105Z,21.5
2018-03-29T11:00:45.116Z,21.5
2018-03-29T11:01:45.137Z,21.5
2018-03-29T11:02:45.115Z,21.5
2018-03-29T11:03:45.124Z,21.5
2018-03-29T11:04:45.116Z,21.5
2018-03-29T11:05:45.118Z,21.5
2018-03-29T11:06:45.175Z,21.5
2018-03-29T11:07:45.111Z,21.5
2018-03-29T11:08:45.109Z,21.5
2018-03-29T11:09:45.144Z,21.5
2018-03-29T11:10:45.122Z,21.75
2018-03-29T11:11:45.169Z,21.5
2018-03-29T11:12:45.141Z,21.5
2018-03-29T11:13:45.095Z,21.5
2018-03-29T11:14:45.116Z,21.5
2018-03-29T11:15:45.107Z,21.5
2018-03-29T11:16:45.373Z,21.5
2018-03-29T11:17:45.104Z,21.5
2018-03-29T11:18:45.110Z,21.5
2018-03-29T11:19:45.123Z,21.5
2018-03-29T11:20:45.171Z,21.5
2018-03-29T11:21:45.129Z,21.5
2018-03-29T11:22:45.140Z,21.75
2018-03-29T11:23:45.125Z,21.5
2018-03-29T11:24:45.106Z,21.5
2018-03-29T11:25:45.102Z,21.75
2018-03-29T11:26:45.149Z,21.5
2018-03-29T11:27:45.123Z,21.5
2018-03-29T11:28:45.103Z,21.5
2018-03-29T11:29:45.135Z,21.5
2018-03-29T11:30:45.102Z,21.5
2018-03-29T11:31:45.134Z,21.5
2018-03-29T11:32:45.106Z,21.5
2018-03-29T11:33:45.115Z,21.5
2018-03-29T11:34:45.108Z,21.75
2018-03-29T11:35:45.155Z,21.5
2018-03-29T11:36:45.157Z,21.5
2018-03-29T11:37:45.107Z,21.5
2018-03-29T11:38:45.368Z,21.5
2018-03-29T11:39:45.144Z,21.5
2018-03-29T11:40:45.097Z,21.75
2018-03-29T11:41:45.095Z,21.5
2018-03-29T11:42:45.100Z,21.5
2018-03-29T11:43:45.132Z,21.75
2018-03-29T11:44:45.101Z,21.5
2018-03-29T11:45:45.107Z,21.5
2018-03-29T11:46:45.090Z,21.75
2018-03-29T11:47:45.108Z,21.5
2018-03-29T11:48:45.124Z,21.5
2018-03-29T11:49:45.096Z,21.75
2018-03-29T11:50:45.126Z,21.5
2018-03-29T11:51:45.069Z,21.5
2018-03-29T11:52:45.100Z,21.75
2018-03-29T11:53:45.214Z,21.5
2018-03-29T11:54:45.121Z,21.5
2018-03-29T11:55:45.098Z,21.75
2018-03-29T11:56:45.103Z,21.5
2018-03-29T11:57:45.084Z,21.5
2018-03-29T11:58:45.122Z,21.75
2018-03-29T11:59:45.125Z,21.75
2018-03-29T12:00:45.091Z,21.75
2018-03-29T12:01:45.101Z,21.75
2018-03-29T12:02:45.087Z,21.5
2018-03-29T12:03:45.099Z,21.75
2018-03-29T12:04:45.088Z,21.75
2018-03-29T12:05:45.106Z,21.5
2018-03-29T12:06:45.065Z,21.75
2018-03-29T12:07:45.131Z,21.75
2018-03-29T12:08:45.213Z,21.75
2018-03-29T12:09:45.228Z,21.75
2018-03-29T12:10:45.131Z,21.75
2018-03-29T12:11:45.106Z,21.75
2018-03-29T12:12:45.078Z,21.75
2018-03-29T12:13:45.087Z,21.75
2018-03-29T12:14:45.132Z,21.5
2018-03-29T12:15:45.114Z,21.75
2018-03-29T12:16:45.095Z,21.75
2018-03-29T12:17:45.112Z,21.5
2018-03-29T12:18:45.088Z,21.75
2018-03-29T12:19:45.105Z,21.75
2018-03-29T12:20:45.094Z,21.5
2018-03-29T12:21:45.086Z,21.5
2018-03-29T12:22:45.084Z,21.75
2018-03-29T12:23:45.093Z,21.5
2018-03-29T12:24:45.391Z,21.75
2018-03-29T12:25:45.184Z,21.75
2018-03-29T12:26:45.108Z,21.5
2018-03-29T12:27:45.057Z,21.5
2018-03-29T12:28:45.098Z,21.75
2018-03-29T12:29:45.123Z,21.5
2018-03-29T12:30:45.069Z,21.75
2018-03-29T12:31:45.090Z,21.5
2018-03-29T12:32:45.081Z,21.5
2018-03-29T12:33:45.099Z,21.5
2018-03-29T12:34:45.125Z,21.75
2018-03-29T12:35:45.078Z,21.5
2018-03-29T12:36:45.077Z,21.75
2018-03-29T12:37:45.086Z,21.75
2018-03-29T12:38:45.002Z,21.75
2018-03-29T12:39:45.121Z,21.75
2018-03-29T12:40:45.088Z,21.75
2018-03-29T12:41:45.114Z,21.75
2018-03-29T12:42:45.261Z,21.75
2018-03-29T12:43:45.071Z,21.75
2018-03-29T12:44:45.094Z,21.75
2018-03-29T12:45:45.093Z,21.75
2018-03-29T12:46:45.254Z,21.75
2018-03-29T12:47:45.076Z,21.75
2018-03-29T12:48:45.062Z,21.75
2018-03-29T12:49:45.076Z,21.75
2018-03-29T12:50:45.068Z,21.75
2018-03-29T12:51:45.086Z,21.75
2018-03-29T12:52:45.072Z,21.75
2018-03-29T12:53:45.343Z,21.75
2018-03-29T12:54:45.057Z,21.75
2018-03-29T12:55:45.329Z,21.75
2018-03-29T12:56:45.090Z,21.75
2018-03-29T12:57:45.264Z,21.75
2018-03-29T12:58:45.215Z,21.75
2018-03-29T12:59:52.619Z,21.75
2018-03-29T13:00:45.091Z,21.75
2018-03-29T13:01:48.299Z,21.75
2018-03-29T13:02:45.090Z,21.75
2018-03-29T13:03:45.069Z,21.75
2018-03-29T13:04:45.103Z,21.75
2018-03-29T13:05:45.088Z,21.75
2018-03-29T13:06:45.267Z,21.75
2018-03-29T13:07:45.076Z,21.75
2018-03-29T13:08:45.215Z,21.75
2018-03-29T13:09:45.151Z,21.75
2018-03-29T13:10:45.070Z,21.75
2018-03-29T13:11:45.166Z,21.75
2018-03-29T13:12:45.103Z,21.75
2018-03-29T13:13:45.118Z,21.75
2018-03-29T13:14:45.105Z,21.75
2018-03-29T13:15:45.041Z,21.75
2018-03-29T13:16:45.172Z,21.75
2018-03-29T13:17:45.239Z,21.75
2018-03-29T13:18:45.183Z,21.75
2018-03-29T13:19:45.332Z,21.75